createdAt,value
2023-01-28T00:02:22.007Z,101540.09
2023-01-28T00:04:50.471Z,101540.44
2023-01-28T00:07:19.221Z,101545.75
2023-01-28T00:09:47.194Z,101546.97
2023-01-28T00:12:15.569Z,101549.84
2023-01-28T00:14:46.327Z,101547.81
2023-01-28T00:17:14.610Z,101548.97
2023-01-28T00:19:42.994Z,101544.69
2023-01-28T00:22:11.059Z,101545.44
2023-01-28T00:24:39.034Z,101541.66
2023-01-28T00:27:07.340Z,101545.09
2023-01-28T00:29:37.794Z,101545.16
2023-01-28T00:32:08.738Z,101544.19
2023-01-28T00:34:36.973Z,101545.16
2023-01-28T00:37:07.945Z,101545.97
2023-01-28T00:39:36.243Z,101542.59
2023-01-28T00:42:04.395Z,101535.69
2023-01-28T00:44:32.376Z,101547.22
2023-01-28T00:47:04.324Z,101553.47
2023-01-28T00:49:33.627Z,101548.25
2023-01-28T00:52:03.145Z,101545.72
2023-01-28T00:54:32.271Z,101546.72
2023-01-28T00:57:01.432Z,101545.09
2023-01-28T00:59:29.815Z,101553.22
2023-01-28T01:02:12.132Z,101555.91
2023-01-28T01:04:54.842Z,101554.28
2023-01-28T01:07:34.911Z,101556.16
2023-01-28T01:10:03.703Z,101558.03
2023-01-28T01:12:31.674Z,101559.06
2023-01-28T01:14:59.694Z,101564.44
2023-01-28T01:17:31.268Z,101559.34
2023-01-28T01:20:00.852Z,101556.03
2023-01-28T01:22:29.218Z,101563.19
2023-01-28T01:24:57.151Z,101559.16
2023-01-28T01:27:25.297Z,101563.38
2023-01-28T01:29:53.510Z,101557.31
2023-01-28T01:32:22.338Z,101563.62
2023-01-28T01:34:50.581Z,101560.19
2023-01-28T01:37:20.214Z,101573.38
2023-01-28T01:39:49.011Z,101577.59
2023-01-28T01:42:17.306Z,101571.81
2023-01-28T01:45:04.750Z,101578.66
2023-01-28T01:47:39.040Z,101569.03
2023-01-28T01:50:15.444Z,101571.44
2023-01-28T01:52:46.042Z,101570.56
2023-01-28T01:55:20.222Z,101566.31
2023-01-28T01:57:51.906Z,101573.41
2023-01-28T02:00:20.676Z,101576.06
2023-01-28T02:02:51.918Z,101581.50
2023-01-28T02:05:22.830Z,101574.41
2023-01-28T02:08:16.079Z,101575.19
2023-01-28T02:10:46.573Z,101593.59
2023-01-28T02:13:17.317Z,101582.16
2023-01-28T02:15:47.225Z,101591.72
2023-01-28T02:18:15.384Z,101586.16
2023-01-28T02:21:07.809Z,101585.31
2023-01-28T02:23:50.333Z,101589.75
2023-01-28T02:26:32.438Z,101588.78
2023-01-28T02:29:10.245Z,101592.47
2023-01-28T02:31:45.881Z,101589.97
2023-01-28T02:34:20.727Z,101585.50
2023-01-28T02:36:52.393Z,101594.28
2023-01-28T02:39:25.697Z,101600.38
2023-01-28T02:42:00.178Z,101591.47
2023-01-28T02:44:31.090Z,101588.81
2023-01-28T02:47:16.762Z,101590.69
2023-01-28T02:49:49.897Z,101587.16
2023-01-28T02:52:41.736Z,101597.00
2023-01-28T02:55:19.137Z,101599.59
2023-01-28T02:57:58.037Z,101600.34
2023-01-28T03:00:34.624Z,101600.47
2023-01-28T03:03:15.678Z,101609.87
2023-01-28T03:06:03.408Z,101600.31
2023-01-28T03:08:55.379Z,101595.94
2023-01-28T03:11:41.832Z,101598.78
2023-01-28T03:14:27.883Z,101603.91
2023-01-28T03:17:19.501Z,101603.00
2023-01-28T03:20:06.038Z,101604.16
2023-01-28T03:22:56.248Z,101608.38
2023-01-28T03:25:46.305Z,101600.28
2023-01-28T03:28:36.858Z,101603.72
2023-01-28T03:31:26.116Z,101610.78
2023-01-28T03:34:17.131Z,101615.00
2023-01-28T03:36:53.450Z,101616.16
2023-01-28T03:39:27.521Z,101619.63
2023-01-28T03:42:01.132Z,101618.59
2023-01-28T03:44:47.143Z,101610.72
2023-01-28T03:47:15.750Z,101610.88
2023-01-28T03:49:49.081Z,101616.13
2023-01-28T03:52:18.634Z,101609.31
2023-01-28T03:54:48.387Z,101612.78
2023-01-28T03:57:17.023Z,101605.84
2023-01-28T03:59:45.668Z,101604.28
2023-01-28T04:02:15.396Z,101610.22
2023-01-28T04:04:45.719Z,101603.16
2023-01-28T04:07:15.578Z,101610.25
2023-01-28T04:09:45.622Z,101615.47
2023-01-28T04:12:14.879Z,101618.12
2023-01-28T04:14:43.182Z,101622.44
2023-01-28T04:17:11.621Z,101619.63
2023-01-28T04:19:40.370Z,101627.41
2023-01-28T04:22:12.519Z,101626.63
2023-01-28T04:24:40.973Z,101626.63
2023-01-28T04:27:09.746Z,101625.66
2023-01-28T04:29:37.744Z,101631.88
2023-01-28T04:32:09.978Z,101634.63
2023-01-28T04:34:40.139Z,101635.47
2023-01-28T04:37:10.585Z,101631.78
2023-01-28T04:39:41.106Z,101635.31
2023-01-28T04:42:09.698Z,101634.47
2023-01-28T04:44:39.737Z,101635.53
2023-01-28T04:47:08.323Z,101636.41
2023-01-28T04:49:36.591Z,101633.75
2023-01-28T04:52:06.439Z,101636.28
2023-01-28T04:54:35.799Z,101631.00
2023-01-28T04:57:04.896Z,101637.91
2023-01-28T04:59:33.074Z,101635.22
2023-01-28T05:02:01.320Z,101639.63
2023-01-28T05:04:29.907Z,101642.22
2023-01-28T05:06:58.553Z,101645.00
2023-01-28T05:09:27.140Z,101645.94
2023-01-28T05:11:56.747Z,101650.16
2023-01-28T05:14:24.836Z,101649.41
2023-01-28T05:16:53.238Z,101654.69
2023-01-28T05:19:21.709Z,101659.00
2023-01-28T05:21:49.800Z,101668.53
2023-01-28T05:24:19.033Z,101660.59
2023-01-28T05:26:47.383Z,101667.63
2023-01-28T05:29:16.769Z,101673.63
2023-01-28T05:31:44.823Z,101674.53
2023-01-28T05:34:13.073Z,101671.88
2023-01-28T05:36:41.832Z,101672.78
2023-01-28T05:39:10.792Z,101677.50
2023-01-28T05:41:39.490Z,101673.84
2023-01-28T05:44:07.583Z,101687.13
2023-01-28T05:46:37.503Z,101678.94
2023-01-28T05:49:08.606Z,101680.78
2023-01-28T05:51:36.911Z,101687.87
2023-01-28T05:54:05.057Z,101687.78
2023-01-28T05:56:35.055Z,101695.75
2023-01-28T05:59:03.508Z,101694.91
2023-01-28T06:01:31.678Z,101679.88
2023-01-28T06:04:01.641Z,101693.84
2023-01-28T06:06:29.989Z,101696.56
2023-01-28T06:08:58.012Z,101690.25
2023-01-28T06:11:26.708Z,101685.97
2023-01-28T06:13:55.302Z,101692.88
2023-01-28T06:16:23.417Z,101694.50
2023-01-28T06:18:53.336Z,101686.66
2023-01-28T06:21:22.889Z,101693.72
2023-01-28T06:23:51.336Z,101694.56
2023-01-28T06:26:19.945Z,101703.44
2023-01-28T06:28:48.145Z,101706.03
2023-01-28T06:31:16.219Z,101706.81
2023-01-28T06:33:44.586Z,101708.44
2023-01-28T06:36:12.565Z,101706.62
2023-01-28T06:38:41.880Z,101707.59
2023-01-28T06:41:10.326Z,101712.06
2023-01-28T06:43:38.278Z,101716.34
2023-01-28T06:46:06.654Z,101714.50
2023-01-28T06:48:34.928Z,101717.16
2023-01-28T06:51:03.046Z,101717.16
2023-01-28T06:53:31.023Z,101718.94
2023-01-28T06:56:00.557Z,101722.38
2023-01-28T06:58:28.639Z,101718.81
2023-01-28T07:00:56.714Z,101725.75
2023-01-28T07:03:24.969Z,101724.87
2023-01-28T07:05:53.061Z,101734.47
2023-01-28T07:08:21.135Z,101730.03
2023-01-28T07:10:49.724Z,101729.19
2023-01-28T07:13:19.113Z,101730.88
2023-01-28T07:15:47.025Z,101731.78
2023-01-28T07:18:15.377Z,101734.41
2023-01-28T07:20:43.611Z,101737.03
2023-01-28T07:23:12.364Z,101735.13
2023-01-28T07:25:40.584Z,101735.19
2023-01-28T07:28:08.779Z,101742.22
2023-01-28T07:30:38.228Z,101745.69
2023-01-28T07:33:06.611Z,101744.75
2023-01-28T07:35:35.515Z,101747.50
2023-01-28T07:38:03.518Z,101745.75
2023-01-28T07:40:31.806Z,101748.31
2023-01-28T07:43:00.912Z,101752.75
2023-01-28T07:45:38.371Z,101756.19
2023-01-28T07:48:08.496Z,101750.91
2023-01-28T07:50:38.132Z,101754.44
2023-01-28T07:53:07.506Z,101764.03
2023-01-28T07:55:36.436Z,101761.25
2023-01-28T07:58:05.846Z,101755.13
2023-01-28T08:00:36.657Z,101752.41
2023-01-28T08:03:08.801Z,101753.16
2023-01-28T08:05:43.341Z,101752.41
2023-01-28T08:08:12.840Z,101751.50
2023-01-28T08:10:41.537Z,101747.03
2023-01-28T08:13:12.018Z,101754.03
2023-01-28T08:15:41.055Z,101755.03
2023-01-28T08:18:13.403Z,101762.03
2023-01-28T08:20:43.567Z,101753.16
2023-01-28T08:23:14.929Z,101750.47
2023-01-28T08:25:43.630Z,101751.19
2023-01-28T08:28:12.275Z,101756.50
2023-01-28T08:30:40.439Z,101756.44
2023-01-28T08:33:11.780Z,101744.94
2023-01-28T08:35:40.198Z,101761.59
2023-01-28T08:38:09.323Z,101759.78
2023-01-28T08:40:38.047Z,101756.19
2023-01-28T08:43:06.583Z,101764.91
2023-01-28T08:45:34.859Z,101765.78
2023-01-28T08:48:05.218Z,101774.44
2023-01-28T08:50:36.595Z,101770.00
2023-01-28T08:53:06.978Z,101775.28
2023-01-28T08:55:35.578Z,101783.06
2023-01-28T08:58:09.194Z,101784.84
2023-01-28T09:01:04.717Z,101780.28
2023-01-28T09:03:33.834Z,101778.50
2023-01-28T09:06:06.407Z,101786.31
2023-01-28T09:08:34.701Z,101793.34
2023-01-28T09:11:03.017Z,101794.16
2023-01-28T09:13:31.269Z,101790.56
2023-01-28T09:15:59.294Z,101794.84
2023-01-28T09:18:27.875Z,101801.94
2023-01-28T09:20:55.866Z,101806.25
2023-01-28T09:23:25.347Z,101806.28
2023-01-28T09:26:01.163Z,101802.72
2023-01-28T09:28:30.013Z,101813.28
2023-01-28T09:31:03.171Z,101806.16
2023-01-28T09:33:31.497Z,101818.50
2023-01-28T09:36:01.283Z,101812.44
2023-01-28T09:38:32.479Z,101820.28
2023-01-28T09:41:01.686Z,101820.53
2023-01-28T09:43:51.402Z,101833.66
2023-01-28T09:46:19.787Z,101823.50
2023-01-28T09:48:51.988Z,101834.22
2023-01-28T09:51:31.540Z,101829.87
2023-01-28T09:54:07.140Z,101845.28
2023-01-28T09:56:40.561Z,101846.06
2023-01-28T09:59:19.374Z,101836.97
2023-01-28T10:01:55.434Z,101842.25
2023-01-28T10:04:36.824Z,101839.44
2023-01-28T10:07:20.321Z,101837.53
2023-01-28T10:09:57.343Z,101840.75
2023-01-28T10:12:41.105Z,101837.03
2023-01-28T10:15:24.794Z,101831.69
2023-01-28T10:18:10.831Z,101836.78
2023-01-28T10:20:48.675Z,101833.87
2023-01-28T10:23:22.917Z,101823.84
2023-01-28T10:25:52.580Z,101825.25
2023-01-28T10:28:23.101Z,101827.75
2023-01-28T10:30:52.565Z,101837.25
2023-01-28T10:33:25.946Z,101831.88
2023-01-28T10:35:56.630Z,101832.69
2023-01-28T10:38:26.913Z,101832.75
2023-01-28T10:41:01.448Z,101830.97
2023-01-28T10:43:33.547Z,101829.19
2023-01-28T10:46:06.314Z,101830.84
2023-01-28T10:48:37.776Z,101831.72
2023-01-28T10:51:06.880Z,101827.28
2023-01-28T10:53:37.071Z,101819.25
2023-01-28T10:56:10.090Z,101817.38
2023-01-28T10:58:49.555Z,101820.81
2023-01-28T11:01:17.873Z,101816.37
2023-01-28T11:03:55.339Z,101821.91
2023-01-28T11:06:26.534Z,101818.50
2023-01-28T11:08:54.488Z,101822.00
2023-01-28T11:11:28.085Z,101816.13
2023-01-28T11:13:58.645Z,101811.16
2023-01-28T11:16:27.632Z,101821.50
2023-01-28T11:19:00.835Z,101824.97
2023-01-28T11:21:32.584Z,101815.31
2023-01-28T11:24:14.279Z,101823.16
2023-01-28T11:26:49.616Z,101819.47
2023-01-28T11:29:28.284Z,101810.59
2023-01-28T11:31:57.929Z,101804.31
2023-01-28T11:34:28.471Z,101810.34
2023-01-28T11:37:03.901Z,101808.53
2023-01-28T11:39:32.411Z,101802.34
2023-01-28T11:42:18.832Z,101801.28
2023-01-28T11:44:47.710Z,101809.22
2023-01-28T11:47:36.663Z,101811.91
2023-01-28T11:50:32.251Z,101802.44
2023-01-28T11:53:08.854Z,101798.94
2023-01-28T11:55:46.747Z,101804.00
2023-01-28T11:58:30.993Z,101812.81
2023-01-28T12:01:06.984Z,101807.84
2023-01-28T12:03:44.112Z,101807.97
2023-01-28T12:06:40.220Z,101803.37
2023-01-28T12:09:18.793Z,101808.94
2023-01-28T12:12:13.135Z,101798.03
2023-01-28T12:15:04.316Z,101799.13
2023-01-28T12:17:49.499Z,101789.25
2023-01-28T12:20:28.249Z,101786.75
2023-01-28T12:23:21.144Z,101795.44
2023-01-28T12:26:08.364Z,101779.53
2023-01-28T12:28:58.754Z,101777.09
2023-01-28T12:31:53.067Z,101788.34
2023-01-28T12:34:56.643Z,101780.13
2023-01-28T12:37:35.373Z,101781.47
2023-01-28T12:40:22.442Z,101788.44
2023-01-28T12:42:55.728Z,101788.50
2023-01-28T12:45:28.772Z,101786.22
2023-01-28T12:48:03.541Z,101786.59
2023-01-28T12:50:37.469Z,101783.78
2023-01-28T12:53:21.221Z,101775.16
2023-01-28T12:55:55.028Z,101787.09
2023-01-28T12:58:37.725Z,101775.63
2023-01-28T13:01:10.628Z,101778.25
2023-01-28T13:03:44.824Z,101779.78
2023-01-28T13:06:18.143Z,101779.59
2023-01-28T13:08:46.621Z,101777.88
2023-01-28T13:11:18.201Z,101794.81
2023-01-28T13:13:47.694Z,101792.34
2023-01-28T13:16:16.670Z,101779.06
2023-01-28T13:18:47.818Z,101778.97
2023-01-28T13:21:32.475Z,101782.47
2023-01-28T13:24:23.018Z,101777.25
2023-01-28T13:26:53.656Z,101771.22
2023-01-28T13:29:30.981Z,101775.06
2023-01-28T13:32:01.112Z,101775.28
2023-01-28T13:34:34.707Z,101779.88
2023-01-28T13:37:18.153Z,101778.19
2023-01-28T13:39:51.746Z,101780.97
2023-01-28T13:42:26.101Z,101781.28
2023-01-28T13:44:54.742Z,101780.28
2023-01-28T13:47:28.241Z,101782.34
2023-01-28T13:50:02.526Z,101768.09
2023-01-28T13:52:33.982Z,101768.00
2023-01-28T13:55:06.532Z,101765.97
2023-01-28T13:58:09.971Z,101763.25
2023-01-28T14:00:49.508Z,101769.31
2023-01-28T14:03:56.759Z,101762.25
2023-01-28T14:06:47.269Z,101758.72
2023-01-28T14:09:37.066Z,101756.41
2023-01-28T14:12:22.146Z,101761.97
2023-01-28T14:15:18.092Z,101755.81
2023-01-28T14:17:48.412Z,101754.91
2023-01-28T14:20:21.929Z,101758.38
2023-01-28T14:22:51.717Z,101757.34
2023-01-28T14:25:30.583Z,101758.13
2023-01-28T14:28:01.732Z,101762.44
2023-01-28T14:30:37.337Z,101764.09
2023-01-28T14:33:11.290Z,101756.13
2023-01-28T14:35:45.508Z,101759.63
2023-01-28T14:38:18.672Z,101756.13
2023-01-28T14:40:49.337Z,101761.41
2023-01-28T14:43:21.716Z,101764.00
2023-01-28T14:46:07.351Z,101761.44
2023-01-28T14:48:43.291Z,101750.88
2023-01-28T14:51:40.517Z,101750.00
2023-01-28T14:54:30.667Z,101742.88
2023-01-28T14:57:18.778Z,101741.16
2023-01-28T14:59:50.267Z,101731.47
2023-01-28T15:02:20.795Z,101724.47
2023-01-28T15:04:50.138Z,101734.16
2023-01-28T15:07:21.075Z,101734.25
2023-01-28T15:10:01.403Z,101727.28
2023-01-28T15:12:31.307Z,101731.66
2023-01-28T15:15:00.234Z,101737.94
2023-01-28T15:17:29.326Z,101737.06
2023-01-28T15:19:58.971Z,101742.50
2023-01-28T15:22:28.947Z,101750.72
2023-01-28T15:24:58.776Z,101747.47
2023-01-28T15:27:30.600Z,101755.50
2023-01-28T15:30:00.042Z,101758.16
2023-01-28T15:32:30.791Z,101760.06
2023-01-28T15:35:01.253Z,101759.22
2023-01-28T15:37:29.430Z,101749.47
2023-01-28T15:40:07.102Z,101753.81
2023-01-28T15:42:35.970Z,101746.72
2023-01-28T15:45:04.540Z,101751.16
2023-01-28T15:47:35.435Z,101753.88
2023-01-28T15:50:07.394Z,101748.72
2023-01-28T15:52:38.521Z,101766.31
2023-01-28T15:55:29.436Z,101764.59
2023-01-28T15:57:57.529Z,101771.66
2023-01-28T16:00:26.771Z,101772.63
2023-01-28T16:02:56.346Z,101766.50
2023-01-28T16:05:27.634Z,101772.69
2023-01-28T16:07:58.423Z,101771.12
2023-01-28T16:10:30.917Z,101779.22
2023-01-28T16:13:06.122Z,101780.25
2023-01-28T16:15:36.636Z,101785.63
2023-01-28T16:18:06.013Z,101787.38
2023-01-28T16:20:34.412Z,101783.19
2023-01-28T16:23:05.301Z,101782.25
2023-01-28T16:25:38.155Z,101781.34
2023-01-28T16:28:17.802Z,101782.16
2023-01-28T16:30:46.179Z,101789.22
2023-01-28T16:33:21.955Z,101792.69
2023-01-28T16:36:06.487Z,101798.94
2023-01-28T16:38:36.257Z,101805.34
2023-01-28T16:41:06.279Z,101793.88
2023-01-28T16:46:04.165Z,101805.41
2023-01-28T16:48:33.830Z,101811.56
2023-01-28T16:51:01.787Z,101819.44
2023-01-28T16:53:33.557Z,101818.00
2023-01-28T16:56:02.497Z,101810.03
2023-01-28T16:58:31.968Z,101804.75
2023-01-28T17:01:00.071Z,101796.78
2023-01-28T17:03:28.443Z,101791.41
2023-01-28T17:05:57.339Z,101779.13
2023-01-28T17:08:25.441Z,101764.12
2023-01-28T17:10:54.926Z,101764.12
2023-01-28T17:13:23.934Z,101750.09
2023-01-28T17:15:54.014Z,101749.19
2023-01-28T17:18:22.328Z,101752.66
2023-01-28T17:20:50.301Z,101756.09
2023-01-28T17:23:22.899Z,101767.59
2023-01-28T17:25:51.388Z,101772.13
2023-01-28T17:28:19.351Z,101777.47
2023-01-28T17:30:47.336Z,101778.41
2023-01-28T17:33:16.941Z,101782.81
2023-01-28T17:35:47.766Z,101781.22
2023-01-28T17:38:16.043Z,101796.09
2023-01-28T17:40:44.241Z,101799.50
2023-01-28T17:43:12.206Z,101804.06
2023-01-28T17:45:40.514Z,101816.66
2023-01-28T17:48:08.582Z,101825.25
2023-01-28T17:50:39.609Z,101823.63
2023-01-28T17:53:08.107Z,101834.13
2023-01-28T17:55:37.110Z,101831.56
2023-01-28T17:58:05.438Z,101830.81
2023-01-28T18:00:33.948Z,101829.75
2023-01-28T18:03:02.613Z,101835.91
2023-01-28T18:05:30.715Z,101849.06
2023-01-28T18:08:00.041Z,101861.22
2023-01-28T18:10:28.552Z,101855.28
2023-01-28T18:12:56.710Z,101864.03
2023-01-28T18:15:25.341Z,101870.44
2023-01-28T18:17:53.786Z,101879.19
2023-01-28T18:20:21.983Z,101888.88
2023-01-28T18:22:50.038Z,101877.69
2023-01-28T18:25:20.124Z,101871.28
2023-01-28T18:27:48.539Z,101861.69
2023-01-28T18:30:18.309Z,101864.25
2023-01-28T18:32:46.757Z,101873.06
2023-01-28T18:35:15.198Z,101872.09
2023-01-28T18:37:43.438Z,101855.34
2023-01-28T18:40:13.159Z,101856.19
2023-01-28T18:42:42.615Z,101857.25
2023-01-28T18:45:11.408Z,101872.09
2023-01-28T18:47:39.698Z,101878.25
2023-01-28T18:50:09.116Z,101862.62
2023-01-28T18:52:37.289Z,101863.75
2023-01-28T18:55:06.073Z,101866.03
2023-01-28T18:57:34.232Z,101876.53
2023-01-28T19:00:03.992Z,101862.50
2023-01-28T19:02:32.349Z,101855.38
2023-01-28T19:05:00.347Z,101844.81
2023-01-28T19:07:28.337Z,101848.34
2023-01-28T19:09:56.623Z,101848.34
2023-01-28T19:12:24.761Z,101847.56
2023-01-28T19:14:52.725Z,101842.25
2023-01-28T19:17:22.256Z,101853.59
2023-01-28T19:19:50.387Z,101871.13
2023-01-28T19:22:19.022Z,101872.03
2023-01-28T19:24:47.306Z,101871.13
2023-01-28T19:27:15.483Z,101877.25
2023-01-28T19:29:43.587Z,101873.75
2023-01-28T19:32:11.895Z,101872.94
2023-01-28T19:34:41.158Z,101872.94
2023-01-28T19:37:09.591Z,101877.28
2023-01-28T19:39:37.925Z,101866.75
2023-01-28T19:42:05.908Z,101865.91
2023-01-28T19:44:34.258Z,101864.19
2023-01-28T19:47:03.257Z,101860.66
2023-01-28T19:49:31.566Z,101862.56
2023-01-28T19:52:01.043Z,101872.94
2023-01-28T19:54:29.511Z,101865.00
2023-01-28T19:56:57.506Z,101866.88
2023-01-28T19:59:25.485Z,101856.25
2023-01-28T20:01:54.060Z,101850.13
2023-01-28T20:04:22.585Z,101862.34
2023-01-28T20:06:50.811Z,101866.69
2023-01-28T20:09:21.085Z,101870.25
2023-01-28T20:11:49.593Z,101858.88
2023-01-28T20:14:18.245Z,101847.53
2023-01-28T20:16:46.275Z,101851.09
2023-01-28T20:19:16.387Z,101839.69
2023-01-28T20:21:45.138Z,101844.06
2023-01-28T20:24:14.235Z,101855.53
2023-01-28T20:26:45.081Z,101867.13
2023-01-28T20:29:17.423Z,101869.69
2023-01-28T20:31:52.010Z,101871.34
2023-01-28T20:34:29.021Z,101858.16
2023-01-28T20:36:57.341Z,101846.78
2023-01-28T20:39:25.423Z,101846.75
2023-01-28T20:41:54.753Z,101831.00
2023-01-28T20:44:23.242Z,101852.09
2023-01-28T20:46:51.524Z,101855.53
2023-01-28T20:49:19.585Z,101859.12
2023-01-28T20:51:47.793Z,101875.72
2023-01-28T20:54:17.771Z,101868.66
2023-01-28T20:56:45.943Z,101869.72
2023-01-28T20:59:15.556Z,101873.22
2023-01-28T21:01:44.130Z,101874.94
2023-01-28T21:04:12.529Z,101879.38
2023-01-28T21:06:41.187Z,101865.28
2023-01-28T21:09:10.263Z,101860.03
2023-01-28T21:11:38.208Z,101852.19
2023-01-28T21:14:06.377Z,101852.22
2023-01-28T21:16:41.094Z,101855.81
2023-01-28T21:19:09.404Z,101854.94
2023-01-28T21:21:37.908Z,101861.09
2023-01-28T21:24:06.909Z,101862.06
2023-01-28T21:26:35.149Z,101849.84
2023-01-28T21:29:03.151Z,101848.09
2023-01-28T21:31:31.403Z,101849.81
2023-01-28T21:34:02.154Z,101838.41
2023-01-28T21:36:33.724Z,101840.28
2023-01-28T21:39:03.428Z,101850.78
2023-01-28T21:41:32.470Z,101839.31
2023-01-28T21:44:00.510Z,101847.13
2023-01-28T21:46:31.615Z,101848.00
2023-01-28T21:49:02.709Z,101853.25
2023-01-28T21:51:39.596Z,101848.03
2023-01-28T21:54:12.799Z,101853.22
2023-01-28T21:56:42.569Z,101855.88
2023-01-28T21:59:29.201Z,101854.13
2023-01-28T22:01:59.401Z,101855.00
2023-01-28T22:04:31.767Z,101854.97
2023-01-28T22:07:00.668Z,101855.03
2023-01-28T22:09:29.532Z,101855.03
2023-01-28T22:11:57.855Z,101855.97
2023-01-28T22:14:25.918Z,101855.97
2023-01-28T22:16:54.289Z,101850.03
2023-01-28T22:19:22.299Z,101856.09
2023-01-28T22:21:51.712Z,101853.59
2023-01-28T22:24:22.477Z,101850.09
2023-01-28T22:26:51.231Z,101840.44
2023-01-28T22:29:21.234Z,101830.81
2023-01-28T22:31:50.736Z,101835.22
2023-01-28T22:34:19.283Z,101833.47
2023-01-28T22:36:48.183Z,101844.91
2023-01-28T22:39:18.011Z,101833.53
2023-01-28T22:41:46.297Z,101837.00
2023-01-28T22:44:16.069Z,101828.28
2023-01-28T22:46:44.139Z,101827.41
2023-01-28T22:49:12.604Z,101825.72
2023-01-28T22:51:40.990Z,101819.66
2023-01-28T22:54:11.016Z,101826.72
2023-01-28T22:56:40.354Z,101832.88
2023-01-28T22:59:08.611Z,101823.28
2023-01-28T23:01:36.975Z,101827.69
2023-01-28T23:04:05.318Z,101827.75
2023-01-28T23:06:34.031Z,101827.78
2023-01-28T23:09:02.057Z,101817.34
2023-01-28T23:11:30.061Z,101826.16
2023-01-28T23:14:19.345Z,101830.59
2023-01-28T23:17:05.533Z,101831.53
2023-01-28T23:19:51.306Z,101827.19
2023-01-28T23:22:41.126Z,101826.37
2023-01-28T23:25:10.333Z,101824.69
2023-01-28T23:27:38.613Z,101827.34
2023-01-28T23:30:10.227Z,101823.03
2023-01-28T23:32:40.120Z,101823.09
2023-01-28T23:35:09.198Z,101811.81
2023-01-28T23:37:37.495Z,101815.31
2023-01-28T23:40:07.003Z,101824.09
2023-01-28T23:42:35.176Z,101821.50
2023-01-28T23:45:03.253Z,101797.88
2023-01-28T23:47:33.434Z,101801.41
2023-01-28T23:50:01.781Z,101804.94
2023-01-28T23:52:29.922Z,101803.22
2023-01-28T23:54:58.263Z,101811.09
2023-01-28T23:57:26.362Z,101812.84
2023-01-28T23:59:55.417Z,101808.50
